Time;durP1;ratioP1;P1;durP2;ratioP2;P2;SDS_P1;SDS_P2;PMS_P1;PMS_P2;Temp;Humidity;BMP_temperature;BMP_pressure;BME280_temperature;BME280_humidity;BME280_pressure;Samples;Min_cycle;Max_cycle;Signal;HPM_P1;HPM_P2
2022/04/04 04:02:42;;;;;;;28.00;25.00;;;-0.80;99.90;;;;;;4983464;23;20494;-63
2022/04/04 04:05:09;;;;;;;29.77;26.97;;;-0.80;99.90;;;;;;4985447;28;20450;-62
2022/04/04 04:07:36;;;;;;;28.53;25.67;;;-0.80;99.90;;;;;;4978462;28;20466;-63
2022/04/04 04:10:04;;;;;;;29.27;26.20;;;-0.80;99.90;;;;;;4977472;28;20455;-62
2022/04/04 04:12:31;;;;;;;30.33;27.03;;;-0.80;99.90;;;;;;4976944;28;20481;-62
2022/04/04 04:14:58;;;;;;;30.00;26.90;;;-0.90;99.90;;;;;;4977012;28;20469;-63
2022/04/04 04:17:25;;;;;;;31.13;27.83;;;-0.90;99.90;;;;;;4976968;28;20462;-61
2022/04/04 04:22:38;;;;;;;34.50;31.00;;;-1.00;99.90;;;;;;4977031;28;20548;-62
2022/04/04 04:25:07;;;;;;;33.17;29.87;;;-1.10;99.90;;;;;;4977351;28;20456;-63
2022/04/04 04:27:34;;;;;;;33.27;29.73;;;-1.10;99.90;;;;;;4976875;28;20453;-63
2022/04/04 04:30:00;;;;;;;36.13;32.47;;;-1.20;99.90;;;;;;4976355;28;20465;-63
2022/04/04 04:32:27;;;;;;;34.83;31.10;;;-1.20;99.90;;;;;;4976978;28;20507;-61
2022/04/04 04:34:55;;;;;;;35.97;31.93;;;-1.20;99.90;;;;;;4976383;28;20953;-62
2022/04/04 04:37:22;;;;;;;35.30;31.70;;;-1.30;99.90;;;;;;4976627;28;20870;-62
2022/04/04 04:39:49;;;;;;;35.27;31.57;;;-1.30;99.90;;;;;;4977740;28;20464;-62
2022/04/04 04:42:16;;;;;;;36.70;33.07;;;-1.30;99.90;;;;;;4976751;28;20493;-63
2022/04/04 04:44:43;;;;;;;36.97;32.97;;;-1.30;99.90;;;;;;4977038;28;20495;-61
2022/04/04 04:47:10;;;;;;;36.40;32.20;;;-1.30;99.90;;;;;;4976424;28;20945;-61
2022/04/04 04:49:37;;;;;;;37.13;33.23;;;-1.40;99.90;;;;;;4976839;28;20457;-62
2022/04/04 04:52:06;;;;;;;36.53;32.10;;;-1.30;99.90;;;;;;4976259;28;20478;-63
2022/04/04 04:54:32;;;;;;;34.43;31.03;;;-1.40;99.90;;;;;;4976228;28;20979;-63
2022/04/04 04:56:59;;;;;;;34.97;31.37;;;-1.40;99.90;;;;;;4976502;28;20467;-63
2022/04/04 04:59:26;;;;;;;35.77;32.13;;;-1.40;99.90;;;;;;4976436;28;20996;-62
2022/04/04 05:01:53;;;;;;;34.13;30.63;;;-1.40;99.90;;;;;;4976345;28;20490;-63
2022/04/04 05:04:19;;;;;;;28.97;26.07;;;-1.20;99.90;;;;;;4976565;28;20459;-63
2022/04/04 05:06:48;;;;;;;26.77;23.87;;;-0.90;99.90;;;;;;4976328;28;20468;-62
2022/04/04 05:09:17;;;;;;;27.57;24.73;;;-0.50;99.90;;;;;;4976187;28;20443;-62
2022/04/04 05:11:44;;;;;;;28.50;25.40;;;-0.40;99.90;;;;;;4975584;28;20506;-63
2022/04/04 05:14:15;;;;;;;26.77;23.60;;;-0.20;99.90;;;;;;4976787;28;20817;-63
2022/04/04 05:16:43;;;;;;;26.77;23.97;;;-0.10;99.90;;;;;;4975756;28;20447;-63
2022/04/04 05:19:09;;;;;;;30.10;25.90;;;-0.20;99.90;;;;;;4976337;28;20466;-62
2022/04/04 05:21:36;;;;;;;30.90;27.37;;;-0.30;99.90;;;;;;4976278;28;20562;-64
2022/04/04 05:24:03;;;;;;;29.17;26.10;;;-0.40;99.90;;;;;;4976471;28;20462;-63
2022/04/04 05:26:31;;;;;;;31.57;28.33;;;-0.50;99.90;;;;;;4976227;28;20456;-63
2022/04/04 05:28:58;;;;;;;29.57;26.67;;;-0.70;99.90;;;;;;4976511;28;20461;-63
2022/04/04 05:31:25;;;;;;;31.40;28.00;;;-0.80;99.90;;;;;;4975809;28;21001;-63
2022/04/04 05:33:51;;;;;;;29.47;26.47;;;-0.80;99.90;;;;;;4977324;28;20461;-62
2022/04/04 05:36:20;;;;;;;29.33;26.13;;;-0.90;99.90;;;;;;4976379;28;20471;-62
2022/04/04 05:38:50;;;;;;;31.67;26.10;;;-0.90;99.90;;;;;;4976368;28;20459;-63
2022/04/04 05:41:17;;;;;;;29.00;25.30;;;-1.00;99.90;;;;;;4975610;28;20481;-62
2022/04/04 05:43:47;;;;;;;27.43;24.60;;;-1.00;99.90;;;;;;4976071;28;20508;-62
2022/04/04 05:46:14;;;;;;;25.80;23.30;;;-1.00;99.90;;;;;;4975855;28;20463;-64
2022/04/04 05:48:41;;;;;;;24.97;22.47;;;-0.90;99.90;;;;;;4975886;28;20469;-63
2022/04/04 05:51:08;;;;;;;24.03;21.43;;;-0.90;99.90;;;;;;4975572;28;20486;-63
2022/04/04 05:53:35;;;;;;;23.60;21.10;;;-0.70;99.90;;;;;;4975818;28;20456;-61
2022/04/04 05:56:02;;;;;;;21.27;18.90;;;-0.50;99.90;;;;;;4975662;28;20457;-62
2022/04/04 05:58:29;;;;;;;21.03;18.80;;;-0.20;99.90;;;;;;4975695;28;20455;-62
2022/04/04 06:00:57;;;;;;;17.83;16.00;;;0.20;99.90;;;;;;4975256;28;20490;-62
2022/04/04 06:03:24;;;;;;;18.77;15.87;;;0.50;99.90;;;;;;4975710;28;20449;-64
2022/04/04 06:05:51;;;;;;;17.13;15.37;;;0.90;99.90;;;;;;4975504;28;20453;-64
2022/04/04 06:08:18;;;;;;;15.20;13.80;;;1.30;99.90;;;;;;4975685;28;20513;-63
2022/04/04 06:10:46;;;;;;;16.20;14.57;;;1.70;99.90;;;;;;4975691;28;20509;-62
2022/04/04 06:13:13;;;;;;;16.90;15.20;;;2.10;99.90;;;;;;4975687;28;20461;-63
2022/04/04 06:15:40;;;;;;;16.43;14.73;;;2.40;99.90;;;;;;4975539;28;20829;-61
2022/04/04 06:18:08;;;;;;;16.13;13.60;;;2.80;99.90;;;;;;4975590;28;20477;-63
2022/04/04 06:20:35;;;;;;;15.27;13.67;;;3.20;99.90;;;;;;4975825;28;20481;-64
2022/04/04 06:23:02;;;;;;;15.53;13.00;;;3.40;99.90;;;;;;4975882;28;20470;-63
2022/04/04 06:25:28;;;;;;;14.37;12.87;;;3.70;99.90;;;;;;4975650;28;20443;-63
2022/04/04 06:27:55;;;;;;;13.23;11.90;;;4.00;99.90;;;;;;4977538;28;20466;-62
2022/04/04 06:30:22;;;;;;;14.13;12.43;;;4.20;99.90;;;;;;4979947;28;20946;-62
2022/04/04 06:32:49;;;;;;;14.80;12.83;;;4.50;99.90;;;;;;4981321;28;20442;-64
2022/04/04 06:35:18;;;;;;;14.43;11.93;;;4.50;99.90;;;;;;4979269;28;20458;-64
2022/04/04 06:37:46;;;;;;;12.60;11.33;;;4.60;99.90;;;;;;4979806;28;20455;-63
2022/04/04 06:40:14;;;;;;;12.57;11.37;;;4.80;99.90;;;;;;4979591;28;20469;-64
2022/04/04 06:42:42;;;;;;;14.47;11.97;;;4.90;99.90;;;;;;4981303;28;20985;-64
2022/04/04 06:45:11;;;;;;;12.40;11.27;;;5.10;99.90;;;;;;4981939;28;20459;-63
2022/04/04 06:47:38;;;;;;;14.30;11.10;;;5.30;99.90;;;;;;4979144;28;20465;-64
2022/04/04 06:50:06;;;;;;;12.63;11.40;;;5.50;99.90;;;;;;4979978;28;20486;-63
2022/04/04 06:52:34;;;;;;;13.07;11.67;;;5.70;99.90;;;;;;4979270;28;21005;-63
2022/04/04 06:55:02;;;;;;;17.70;12.43;;;5.80;99.90;;;;;;4980255;28;20458;-64
2022/04/04 06:57:28;;;;;;;11.20;10.20;;;6.00;99.90;;;;;;4979616;28;20481;-63
2022/04/04 06:59:55;;;;;;;13.77;11.17;;;6.00;99.90;;;;;;4979715;28;20950;-63
2022/04/04 07:02:22;;;;;;;11.77;10.77;;;6.10;99.90;;;;;;4978366;28;20493;-63
2022/04/04 07:04:50;;;;;;;11.63;10.43;;;6.30;99.90;;;;;;4979326;28;20479;-63
2022/04/04 07:07:17;;;;;;;12.10;11.00;;;6.80;99.90;;;;;;4979165;28;20788;-63
2022/04/04 07:09:46;;;;;;;14.50;10.30;;;7.20;99.90;;;;;;4979571;28;20459;-65
2022/04/04 07:12:12;;;;;;;12.93;11.13;;;7.60;99.90;;;;;;4979074;28;20481;-66
2022/04/04 07:14:39;;;;;;;12.30;11.00;;;8.00;99.80;;;;;;4979159;28;20455;-65
2022/04/04 07:17:06;;;;;;;13.00;10.73;;;8.10;98.80;;;;;;4978597;28;20965;-66
2022/04/04 07:19:33;;;;;;;13.00;11.80;;;8.50;98.10;;;;;;4978921;28;20525;-65
2022/04/04 07:22:00;;;;;;;12.93;10.97;;;8.90;96.80;;;;;;4978907;28;20540;-66
2022/04/04 07:24:27;;;;;;;12.37;11.17;;;9.20;95.70;;;;;;4978645;28;20490;-65
2022/04/04 07:26:56;;;;;;;11.07;10.00;;;9.70;95.20;;;;;;4978891;28;20443;-65
2022/04/04 07:29:22;;;;;;;11.70;10.57;;;10.20;93.10;;;;;;4979956;28;20880;-65
2022/04/04 07:31:49;;;;;;;11.17;10.10;;;10.30;90.30;;;;;;4978527;28;20482;-65
2022/04/04 07:34:16;;;;;;;13.40;9.33;;;10.40;88.60;;;;;;4979022;28;20455;-65
2022/04/04 07:36:43;;;;;;;10.53;9.63;;;10.40;84.60;;;;;;4978580;28;20531;-65
2022/04/04 07:39:10;;;;;;;9.67;8.87;;;10.10;85.20;;;;;;4978205;28;20454;-65
2022/04/04 07:41:37;;;;;;;11.60;9.93;;;10.20;85.50;;;;;;4978194;28;20482;-65
2022/04/04 07:44:06;;;;;;;9.90;9.10;;;10.40;84.30;;;;;;4978314;28;20459;-65
2022/04/04 07:46:33;;;;;;;10.30;9.10;;;10.80;84.70;;;;;;4978569;28;20455;-65
2022/04/04 07:49:00;;;;;;;10.90;9.80;;;11.20;81.30;;;;;;4978115;28;20459;-65
2022/04/04 07:51:28;;;;;;;13.03;10.27;;;11.40;77.70;;;;;;4978774;28;20420;-64
2022/04/04 07:53:54;;;;;;;10.97;9.87;;;11.90;79.30;;;;;;4977967;28;20462;-66
2022/04/04 07:56:21;;;;;;;12.53;10.07;;;12.20;77.00;;;;;;4977248;28;20853;-65
2022/04/04 07:58:48;;;;;;;13.73;9.60;;;12.20;73.70;;;;;;4977749;28;20455;-66
2022/04/04 08:01:16;;;;;;;9.00;8.07;;;12.20;72.30;;;;;;4977298;28;21072;-66
2022/04/04 08:03:43;;;;;;;10.50;8.47;;;12.60;69.40;;;;;;4977668;28;20965;-65
2022/04/04 08:06:10;;;;;;;8.37;7.67;;;12.90;68.30;;;;;;4978187;28;21001;-65
2022/04/04 08:08:37;;;;;;;9.80;8.23;;;13.10;67.80;;;;;;4977850;28;20517;-66
2022/04/04 08:11:03;;;;;;;9.10;8.40;;;13.40;63.20;;;;;;4977650;28;20479;-65
2022/04/04 08:13:31;;;;;;;9.77;8.27;;;13.60;63.60;;;;;;4977263;28;20770;-65
2022/04/04 08:16:00;;;;;;;8.93;8.13;;;13.80;60.80;;;;;;4977392;28;20883;-65
2022/04/04 08:18:28;;;;;;;9.30;8.33;;;13.80;59.50;;;;;;4977482;28;20455;-66
2022/04/04 08:20:57;;;;;;;9.60;8.17;;;14.20;59.80;;;;;;4977252;28;20478;-65
2022/04/04 08:23:29;;;;;;;9.37;8.63;;;13.70;59.10;;;;;;4977696;28;20501;-65
2022/04/04 08:25:56;;;;;;;9.97;7.80;;;13.70;58.40;;;;;;4977326;28;20446;-64
2022/04/04 08:28:22;;;;;;;8.23;6.97;;;14.10;58.30;;;;;;4977036;28;20455;-65
2022/04/04 08:30:50;;;;;;;7.30;6.70;;;14.70;55.80;;;;;;4977923;28;21002;-65
2022/04/04 08:33:17;;;;;;;7.73;7.23;;;15.10;54.30;;;;;;4979040;28;20864;-64
2022/04/04 08:35:45;;;;;;;9.07;6.63;;;15.50;52.80;;;;;;4978082;28;20836;-64
2022/04/04 08:38:12;;;;;;;7.50;7.00;;;15.70;50.70;;;;;;4976950;28;20486;-66
2022/04/04 08:40:39;;;;;;;7.67;7.17;;;16.20;51.10;;;;;;4977083;28;20475;-69
2022/04/04 08:43:11;;;;;;;7.70;7.20;;;15.90;49.70;;;;;;4977010;28;20501;-65
2022/04/04 08:45:40;;;;;;;7.20;6.60;;;15.90;48.10;;;;;;4977093;28;20438;-66
2022/04/04 08:48:07;;;;;;;7.53;7.03;;;16.20;48.50;;;;;;4977717;28;20509;-65
2022/04/04 08:50:34;;;;;;;6.80;6.40;;;16.30;47.00;;;;;;4977326;28;20462;-66
2022/04/04 08:53:03;;;;;;;6.90;6.40;;;16.50;45.80;;;;;;4976545;28;20459;-65
2022/04/04 08:55:30;;;;;;;7.33;6.73;;;16.40;43.90;;;;;;4976402;28;20455;-65
2022/04/04 08:57:57;;;;;;;7.13;6.53;;;16.30;45.30;;;;;;4975505;28;20961;-65
2022/04/04 09:00:25;;;;;;;10.13;6.70;;;16.00;46.50;;;;;;4975909;28;20466;-65
2022/04/04 09:03:02;;;;;;;6.50;6.10;;;15.60;44.60;;;;;;4975972;28;20463;-64
2022/04/04 09:05:30;;;;;;;6.50;6.10;;;15.80;43.90;;;;;;4976276;28;20470;-64
2022/04/04 09:08:03;;;;;;;6.77;6.37;;;15.70;43.70;;;;;;4975936;28;20981;-64
2022/04/04 09:10:34;;;;;;;7.40;6.80;;;15.80;47.30;;;;;;4975879;28;20502;-66
2022/04/04 09:13:09;;;;;;;7.20;6.60;;;16.20;45.90;;;;;;4976423;28;20462;-66
2022/04/04 09:15:54;;;;;;;7.10;6.47;;;16.40;43.90;;;;;;4976245;28;20965;-64
2022/04/04 09:18:40;;;;;;;6.50;6.00;;;16.00;43.50;;;;;;4975756;28;20455;-65
2022/04/04 09:21:10;;;;;;;7.87;7.23;;;15.70;41.50;;;;;;4979915;28;20485;-65
2022/04/04 09:23:55;;;;;;;7.10;6.50;;;15.60;43.90;;;;;;4976176;28;20486;-64
2022/04/04 09:26:31;;;;;;;6.97;6.40;;;15.70;41.60;;;;;;4976099;28;20478;-65
2022/04/04 09:28:58;;;;;;;5.73;5.33;;;15.60;40.90;;;;;;4976150;28;20458;-64
2022/04/04 09:31:26;;;;;;;7.27;5.40;;;15.50;41.60;;;;;;4975536;28;20600;-66
2022/04/04 09:33:57;;;;;;;5.97;5.60;;;15.50;41.00;;;;;;4975222;28;20487;-66
2022/04/04 09:36:24;;;;;;;6.47;6.07;;;15.60;41.30;;;;;;4975532;28;20444;-66
2022/04/04 09:39:02;;;;;;;6.23;5.53;;;15.90;40.50;;;;;;4975609;28;20459;-66
2022/04/04 09:41:29;;;;;;;5.23;4.93;;;15.90;42.60;;;;;;4975484;28;20566;-65
2022/04/04 09:43:58;;;;;;;6.33;5.93;;;16.40;43.40;;;;;;4975472;28;21088;-65
2022/04/04 09:46:31;;;;;;;5.73;5.23;;;17.00;41.10;;;;;;4975698;28;20490;-65
2022/04/04 09:49:09;;;;;;;6.27;5.87;;;17.10;42.40;;;;;;4975510;28;20929;-65
2022/04/04 09:51:38;;;;;;;6.87;6.30;;;17.40;39.70;;;;;;4975522;28;20479;-65
2022/04/04 09:54:07;;;;;;;6.90;6.40;;;17.00;41.70;;;;;;4975965;28;20458;-65
2022/04/04 09:56:34;;;;;;;7.83;6.83;;;16.80;42.60;;;;;;4976240;28;20459;-65
2022/04/04 09:59:01;;;;;;;7.60;7.00;;;16.80;42.00;;;;;;4975622;28;20882;-67
2022/04/04 10:01:30;;;;;;;7.47;6.77;;;17.00;45.00;;;;;;4975681;28;20498;-65
2022/04/04 10:03:57;;;;;;;6.50;6.10;;;17.20;42.90;;;;;;4980895;28;21060;-65
2022/04/04 10:06:28;;;;;;;6.67;6.20;;;17.30;42.70;;;;;;4981419;28;20458;-64
2022/04/04 10:08:57;;;;;;;6.20;5.70;;;16.60;41.40;;;;;;4979489;28;20474;-65
2022/04/04 10:11:26;;;;;;;5.50;5.20;;;16.50;43.20;;;;;;4979584;28;20811;-65
2022/04/04 10:13:53;;;;;;;6.03;5.63;;;16.80;41.10;;;;;;4978839;28;20454;-66
2022/04/04 10:16:22;;;;;;;5.97;5.47;;;16.00;40.50;;;;;;4979641;28;20527;-65
2022/04/04 10:18:49;;;;;;;6.30;5.90;;;16.40;41.60;;;;;;4988071;28;20490;-66
2022/04/04 10:21:16;;;;;;;5.70;5.30;;;16.40;42.20;;;;;;4991156;28;20541;-65
2022/04/04 10:23:44;;;;;;;5.53;5.03;;;16.10;42.30;;;;;;4978588;28;20482;-65
2022/04/04 10:26:14;;;;;;;5.43;5.13;;;15.90;44.40;;;;;;4978684;28;20946;-64
2022/04/04 10:28:44;;;;;;;5.83;5.43;;;16.10;43.00;;;;;;4978587;28;20495;-65
2022/04/04 10:31:13;;;;;;;6.20;5.80;;;16.20;44.60;;;;;;4978646;28;20482;-66
2022/04/04 10:33:40;;;;;;;6.10;5.70;;;16.40;45.90;;;;;;4978619;28;20462;-65
2022/04/04 10:36:09;;;;;;;6.13;5.73;;;16.70;46.40;;;;;;4978619;28;20459;-66
2022/04/04 10:38:39;;;;;;;5.53;5.23;;;17.20;45.30;;;;;;4978728;28;20458;-66
2022/04/04 10:41:09;;;;;;;6.10;5.60;;;17.80;44.50;;;;;;4979164;28;20474;-65
2022/04/04 10:43:38;;;;;;;7.20;5.73;;;18.40;43.10;;;;;;4978348;28;20467;-66
2022/04/04 10:46:10;;;;;;;5.97;5.57;;;18.60;40.80;;;;;;4978330;28;20459;-66
2022/04/04 10:48:39;;;;;;;6.43;5.93;;;18.10;41.20;;;;;;4979069;28;20478;-65
2022/04/04 10:51:12;;;;;;;6.97;6.37;;;17.70;40.40;;;;;;4978203;28;20501;-65
2022/04/04 10:53:43;;;;;;;7.83;7.13;;;17.30;40.70;;;;;;4978121;28;20435;-65
2022/04/04 10:56:12;;;;;;;6.80;6.30;;;16.80;42.80;;;;;;4978211;28;20506;-64
2022/04/04 10:58:38;;;;;;;5.87;5.47;;;16.60;45.00;;;;;;4978237;28;20486;-65
2022/04/04 11:01:09;;;;;;;6.23;5.73;;;16.60;43.70;;;;;;4977524;28;20489;-65
2022/04/04 11:03:38;;;;;;;5.50;5.20;;;15.50;42.10;;;;;;4978208;28;20502;-65
2022/04/04 11:09:04;;;;;;;5.70;5.30;;;14.90;46.70;;;;;;4977854;28;20419;-65
2022/04/04 11:11:41;;;;;;;5.97;5.57;;;15.20;48.10;;;;;;4978070;28;20475;-65
2022/04/04 11:14:08;;;;;;;6.20;5.70;;;15.40;47.00;;;;;;4977934;28;20507;-65
2022/04/04 11:17:08;;;;;;;6.73;5.17;;;15.30;45.50;;;;;;4978093;28;20462;-65
2022/04/04 11:19:45;;;;;;;6.20;5.60;;;14.70;44.20;;;;;;4978796;28;20799;-65
2022/04/04 11:22:13;;;;;;;5.33;5.03;;;14.30;47.90;;;;;;4978085;28;20533;-65
2022/04/04 11:24:40;;;;;;;6.10;5.53;;;14.30;50.80;;;;;;4979096;28;20451;-65
2022/04/04 11:27:08;;;;;;;5.57;5.17;;;14.20;50.00;;;;;;4979216;28;20972;-64
2022/04/04 11:29:36;;;;;;;5.13;4.83;;;14.10;48.10;;;;;;4978810;28;20451;-66
2022/04/04 11:32:03;;;;;;;6.20;5.60;;;13.40;47.20;;;;;;4979274;28;20474;-65
2022/04/04 11:34:30;;;;;;;5.80;5.30;;;13.10;49.30;;;;;;4977968;28;20451;-64
2022/04/04 11:36:59;;;;;;;6.70;5.10;;;12.80;49.70;;;;;;4978541;28;20451;-65
2022/04/04 11:39:26;;;;;;;5.30;4.90;;;12.50;51.30;;;;;;4984744;28;20454;-64
2022/04/04 11:41:52;;;;;;;5.03;4.73;;;12.10;48.60;;;;;;4981925;28;20467;-65
2022/04/04 11:44:27;;;;;;;6.43;5.83;;;11.90;50.80;;;;;;4981137;28;20463;-65
2022/04/04 11:47:05;;;;;;;4.90;4.50;;;11.80;51.10;;;;;;4977832;28;20514;-65
2022/04/04 11:49:35;;;;;;;5.13;4.63;;;11.90;51.10;;;;;;4977233;28;20943;-66
2022/04/04 11:52:06;;;;;;;5.17;4.87;;;12.10;52.80;;;;;;4977493;28;20475;-65
2022/04/04 11:54:40;;;;;;;5.30;5.00;;;12.40;52.80;;;;;;4977039;28;20534;-65
2022/04/04 11:57:07;;;;;;;5.60;5.20;;;12.10;50.70;;;;;;4977422;28;20535;-67
2022/04/04 11:59:41;;;;;;;5.17;4.87;;;12.10;52.20;;;;;;4977704;28;20489;-65
2022/04/04 12:02:09;;;;;;;5.53;5.13;;;12.00;51.20;;;;;;4976912;28;20483;-66
2022/04/04 12:04:37;;;;;;;5.57;5.07;;;12.10;53.30;;;;;;4978178;28;20578;-65
2022/04/04 12:07:05;;;;;;;6.03;5.53;;;12.30;53.50;;;;;;4977456;28;20877;-66
2022/04/04 12:09:33;;;;;;;5.50;5.10;;;12.40;52.20;;;;;;4978334;28;20459;-65
2022/04/04 12:12:05;;;;;;;5.67;5.17;;;12.50;51.10;;;;;;4978047;28;20486;-65
2022/04/04 12:14:33;;;;;;;5.50;5.10;;;12.40;52.20;;;;;;4979980;28;20440;-65
2022/04/04 12:17:00;;;;;;;5.03;4.73;;;12.60;53.80;;;;;;4988232;28;20443;-65
2022/04/04 12:19:28;;;;;;;5.57;5.17;;;12.70;56.40;;;;;;4977761;28;20475;-65
2022/04/04 12:21:56;;;;;;;6.00;5.60;;;12.80;52.40;;;;;;4984471;28;20475;-64
2022/04/04 12:27:12;;;;;;;5.40;5.10;;;12.40;52.50;;;;;;4979124;28;20840;-64
2022/04/04 12:29:43;;;;;;;5.83;5.33;;;12.40;53.50;;;;;;4978153;28;20461;-64
2022/04/04 12:32:18;;;;;;;6.23;5.63;;;12.10;53.20;;;;;;4977406;28;20474;-64
2022/04/04 12:34:59;;;;;;;5.33;5.00;;;11.90;52.70;;;;;;4976932;28;20442;-64
2022/04/04 12:37:33;;;;;;;5.67;5.27;;;11.70;51.70;;;;;;4976773;28;20458;-64
2022/04/04 12:40:19;;;;;;;5.50;5.20;;;11.80;54.50;;;;;;4976514;28;20950;-64
2022/04/04 12:42:48;;;;;;;5.27;4.90;;;11.90;54.60;;;;;;4976656;28;20490;-64
2022/04/04 12:45:16;;;;;;;5.20;4.70;;;11.70;53.80;;;;;;4976971;28;20529;-66
2022/04/04 12:48:01;;;;;;;6.10;5.57;;;11.90;53.60;;;;;;4976494;28;20455;-64
2022/04/04 12:50:38;;;;;;;5.97;5.57;;;12.10;54.00;;;;;;4976205;28;20469;-64
2022/04/04 12:53:07;;;;;;;5.77;5.27;;;12.30;54.90;;;;;;4976290;28;20439;-64
2022/04/04 12:55:36;;;;;;;6.70;6.10;;;12.40;56.30;;;;;;4976691;28;20486;-65
2022/04/04 12:58:16;;;;;;;5.47;5.07;;;12.40;54.30;;;;;;4976462;28;20459;-65
2022/04/04 13:00:43;;;;;;;6.00;5.60;;;12.60;54.40;;;;;;4976227;28;20513;-65
2022/04/04 13:03:22;;;;;;;6.27;5.77;;;12.70;54.10;;;;;;4977386;28;20523;-65
2022/04/04 13:05:49;;;;;;;6.40;5.90;;;12.70;53.00;;;;;;4976696;28;20459;-65
2022/04/04 13:08:21;;;;;;;6.00;5.50;;;12.70;54.50;;;;;;4976412;28;20462;-64
2022/04/04 13:11:07;;;;;;;6.33;5.93;;;12.80;54.70;;;;;;4976885;28;20834;-65
2022/04/04 13:13:35;;;;;;;5.70;5.37;;;12.70;52.20;;;;;;4976997;28;20508;-65
2022/04/04 13:16:03;;;;;;;6.47;5.97;;;12.60;52.50;;;;;;4977472;28;20462;-64
2022/04/04 13:18:30;;;;;;;7.00;6.20;;;12.50;54.80;;;;;;4976217;28;20458;-65
2022/04/04 13:20:57;;;;;;;6.67;6.20;;;12.60;55.10;;;;;;4976314;28;20482;-65
2022/04/04 13:23:23;;;;;;;6.60;6.00;;;12.70;54.90;;;;;;4976983;28;20475;-64
2022/04/04 13:25:51;;;;;;;5.90;5.40;;;12.70;57.10;;;;;;4983312;28;20555;-64
2022/04/04 13:28:19;;;;;;;7.03;6.63;;;12.50;57.00;;;;;;4978775;28;20566;-64
2022/04/04 13:30:46;;;;;;;6.50;6.00;;;12.80;59.90;;;;;;4975523;28;21002;-64
2022/04/04 13:33:13;;;;;;;7.20;6.60;;;13.00;58.20;;;;;;4975487;28;21016;-64
2022/04/04 13:35:40;;;;;;;6.77;6.17;;;13.10;55.60;;;;;;4975656;28;20462;-65
2022/04/04 13:38:07;;;;;;;6.27;5.77;;;13.00;55.70;;;;;;4975798;28;20450;-65
2022/04/04 13:40:34;;;;;;;6.73;6.20;;;13.00;55.70;;;;;;4975754;28;20454;-65
2022/04/04 13:43:01;;;;;;;6.03;5.57;;;12.70;52.70;;;;;;4975930;28;20463;-68
2022/04/04 13:45:29;;;;;;;5.60;5.20;;;12.40;55.00;;;;;;4975365;28;20466;-64
2022/04/04 13:47:55;;;;;;;7.27;5.73;;;12.30;54.70;;;;;;4975867;28;20463;-65
2022/04/04 13:50:22;;;;;;;21.10;6.87;;;12.40;55.30;;;;;;4975873;28;20907;-65
2022/04/04 13:52:49;;;;;;;6.57;6.07;;;12.40;55.00;;;;;;4975549;28;20455;-65
2022/04/04 13:55:15;;;;;;;6.80;6.30;;;12.40;57.00;;;;;;4975824;28;20451;-65
2022/04/04 13:57:42;;;;;;;6.27;5.87;;;12.40;56.20;;;;;;4975512;28;20470;-64
2022/04/04 14:00:12;;;;;;;7.57;6.97;;;12.20;56.60;;;;;;4976142;28;20466;-64
2022/04/04 14:02:43;;;;;;;8.37;6.53;;;12.40;57.80;;;;;;4975626;28;20558;-64
2022/04/04 14:05:12;;;;;;;6.70;6.10;;;12.70;55.80;;;;;;4975553;28;20490;-65
2022/04/04 14:07:39;;;;;;;6.60;6.00;;;12.90;56.40;;;;;;4975477;28;20455;-65
2022/04/04 14:10:07;;;;;;;6.30;5.90;;;13.00;54.60;;;;;;4975448;28;20458;-65
2022/04/04 14:12:36;;;;;;;7.13;6.63;;;13.00;55.70;;;;;;4975410;28;20475;-64
2022/04/04 14:15:04;;;;;;;9.53;6.57;;;12.90;56.20;;;;;;4975915;28;20478;-64
2022/04/04 14:17:32;;;;;;;6.93;6.33;;;13.00;59.00;;;;;;4975491;28;20486;-64
2022/04/04 14:20:00;;;;;;;6.40;5.97;;;13.20;55.80;;;;;;4975839;28;20459;-63
2022/04/04 14:22:27;;;;;;;6.63;6.13;;;13.10;54.20;;;;;;4975899;28;20475;-63
2022/04/04 14:24:55;;;;;;;8.73;7.47;;;13.00;57.70;;;;;;4977650;28;20475;-63
2022/04/04 14:27:22;;;;;;;7.50;7.00;;;12.80;57.80;;;;;;4975476;28;20554;-62
2022/04/04 14:29:49;;;;;;;6.90;6.30;;;12.70;58.20;;;;;;4974850;28;20458;-64
2022/04/04 14:32:16;;;;;;;7.13;6.43;;;12.60;58.10;;;;;;4974974;28;20483;-63
2022/04/04 14:34:43;;;;;;;6.30;5.67;;;12.60;58.20;;;;;;4974967;28;20478;-63
2022/04/04 14:37:11;;;;;;;7.27;6.70;;;12.50;56.60;;;;;;4974959;28;20859;-63
2022/04/04 14:39:39;;;;;;;7.53;6.93;;;12.40;55.50;;;;;;4986731;28;20441;-63
2022/04/04 14:42:06;;;;;;;7.20;6.70;;;12.20;56.70;;;;;;4983055;28;20474;-63
2022/04/04 14:44:33;;;;;;;8.87;7.57;;;11.90;57.60;;;;;;4974938;28;20475;-66
2022/04/04 14:46:59;;;;;;;7.40;6.80;;;11.90;59.10;;;;;;4974909;28;20462;-66
2022/04/04 14:49:26;;;;;;;9.87;7.50;;;11.70;58.00;;;;;;4977481;28;20455;-66
2022/04/04 14:51:53;;;;;;;7.43;6.93;;;11.60;57.80;;;;;;4978678;28;20482;-65
2022/04/04 14:54:21;;;;;;;7.07;6.37;;;11.50;58.20;;;;;;4978433;28;20450;-65
2022/04/04 14:56:48;;;;;;;7.20;6.70;;;11.30;58.10;;;;;;4978058;28;20466;-66
2022/04/04 14:59:16;;;;;;;8.40;7.20;;;11.10;59.80;;;;;;4978437;28;20458;-66
2022/04/04 15:01:43;;;;;;;6.90;6.23;;;11.00;59.50;;;;;;4978119;28;20486;-65
2022/04/04 15:04:10;;;;;;;7.87;7.17;;;10.90;59.50;;;;;;4977948;28;20562;-65
2022/04/04 15:06:37;;;;;;;7.13;6.63;;;10.60;59.60;;;;;;4978316;28;20459;-66
2022/04/04 15:09:05;;;;;;;9.50;7.00;;;10.50;60.00;;;;;;4977837;28;20470;-65
2022/04/04 15:11:35;;;;;;;7.13;6.63;;;10.30;60.60;;;;;;4978180;28;20474;-65
2022/04/04 15:14:03;;;;;;;7.97;7.37;;;10.20;60.60;;;;;;4978134;28;20428;-65
2022/04/04 15:16:29;;;;;;;7.80;7.07;;;10.10;61.60;;;;;;4978296;28;20486;-65
2022/04/04 15:18:58;;;;;;;7.70;7.07;;;10.10;63.60;;;;;;4982755;28;20527;-65
2022/04/04 15:21:25;;;;;;;7.83;7.10;;;10.00;64.30;;;;;;4986649;28;20471;-65
2022/04/04 15:23:52;;;;;;;6.87;6.37;;;10.00;63.80;;;;;;4983795;28;20482;-66
2022/04/04 15:26:19;;;;;;;8.27;7.67;;;10.10;64.40;;;;;;4979823;28;20450;-66
2022/04/04 15:28:48;;;;;;;7.40;6.80;;;10.10;64.20;;;;;;4979368;28;20494;-66
2022/04/04 15:31:16;;;;;;;8.00;7.30;;;10.00;63.60;;;;;;4979207;28;20478;-66
2022/04/04 15:33:43;;;;;;;7.33;6.73;;;10.00;65.30;;;;;;4978719;28;20459;-67
2022/04/04 15:36:22;;;;;;;7.87;7.17;;;9.90;66.70;;;;;;4978529;28;20545;-66
2022/04/04 15:38:49;;;;;;;8.20;7.50;;;9.90;66.20;;;;;;4978972;28;20447;-66
2022/04/04 15:41:17;;;;;;;6.63;6.03;;;9.90;67.20;;;;;;4978838;28;20484;-66
2022/04/04 15:43:46;;;;;;;7.60;7.00;;;9.80;66.50;;;;;;4979057;28;20458;-66
2022/04/04 15:46:14;;;;;;;6.83;6.17;;;9.80;67.20;;;;;;4978268;28;20458;-66
2022/04/04 15:48:42;;;;;;;12.70;7.77;;;9.80;69.10;;;;;;4977766;28;20458;-67
2022/04/04 15:51:10;;;;;;;7.60;7.00;;;9.80;68.70;;;;;;4979860;28;20479;-65
2022/04/04 15:53:37;;;;;;;8.33;7.53;;;9.80;69.30;;;;;;4979310;28;20462;-65
2022/04/04 15:56:05;;;;;;;8.13;7.33;;;9.60;67.40;;;;;;4992459;28;20543;-65
2022/04/04 15:58:31;;;;;;;7.73;7.13;;;9.50;69.50;;;;;;4992667;28;20451;-65
2022/04/04 16:00:58;;;;;;;7.77;7.17;;;9.50;70.70;;;;;;4981879;28;20486;-65
2022/04/04 16:03:27;;;;;;;7.80;7.20;;;9.40;71.30;;;;;;4978112;28;20971;-65
2022/04/04 16:05:54;;;;;;;6.90;6.40;;;9.30;73.00;;;;;;4979401;28;20482;-65
2022/04/04 16:08:20;;;;;;;7.47;6.87;;;9.20;72.60;;;;;;4978336;28;20439;-66
2022/04/04 16:10:47;;;;;;;7.50;6.97;;;9.10;70.50;;;;;;4977629;28;20470;-65
2022/04/04 16:13:14;;;;;;;7.73;7.03;;;9.00;71.40;;;;;;4977087;28;20829;-66
2022/04/04 16:15:41;;;;;;;8.30;7.50;;;8.90;71.40;;;;;;4978241;28;20455;-66
2022/04/04 16:18:07;;;;;;;7.57;6.87;;;8.90;72.90;;;;;;4978054;28;20491;-66
2022/04/04 16:20:36;;;;;;;7.63;6.97;;;8.90;73.30;;;;;;4977589;28;20459;-65
2022/04/04 16:23:03;;;;;;;8.40;7.27;;;8.80;72.60;;;;;;4978028;28;20959;-65
2022/04/04 16:25:30;;;;;;;8.80;7.43;;;8.80;74.00;;;;;;4977168;28;20482;-65
2022/04/04 16:27:56;;;;;;;8.23;7.00;;;8.70;74.50;;;;;;4976618;28;20475;-66
2022/04/04 16:30:23;;;;;;;6.60;6.00;;;8.50;75.00;;;;;;4976722;28;20451;-66
2022/04/04 16:32:50;;;;;;;7.87;7.17;;;8.50;75.60;;;;;;4977157;28;20529;-66
2022/04/04 16:35:16;;;;;;;7.57;6.97;;;8.50;76.20;;;;;;4976668;28;20463;-67
2022/04/04 16:37:46;;;;;;;7.07;6.57;;;8.50;77.80;;;;;;4976625;28;20463;-67
2022/04/04 16:40:13;;;;;;;8.03;7.03;;;8.50;77.50;;;;;;4976189;28;20958;-65
2022/04/04 16:42:41;;;;;;;8.73;6.90;;;8.50;79.10;;;;;;4976171;28;20479;-66
2022/04/04 16:45:09;;;;;;;6.90;6.20;;;8.50;77.90;;;;;;4977235;28;21008;-66
2022/04/04 16:47:36;;;;;;;7.20;6.60;;;8.50;78.80;;;;;;4987577;28;20455;-66
2022/04/04 16:50:04;;;;;;;7.13;6.53;;;8.50;80.50;;;;;;4988573;28;20457;-64
2022/04/04 16:52:31;;;;;;;6.53;6.03;;;8.60;92.10;;;;;;4988657;28;20219;-65
2022/04/04 16:54:59;;;;;;;7.40;6.70;;;8.80;93.40;;;;;;4978413;28;20926;-68
2022/04/04 16:57:26;;;;;;;7.63;7.03;;;8.80;79.20;;;;;;4976843;28;20451;-67
2022/04/04 16:59:54;;;;;;;9.13;7.10;;;8.80;80.00;;;;;;4976568;28;20439;-66